createdAt,value
2023-08-04T00:00:11.051Z,3.53
2023-08-04T00:02:13.826Z,3.50
2023-08-04T00:04:16.456Z,3.03
2023-08-04T00:06:19.114Z,3.28
2023-08-04T00:08:21.820Z,5.03
2023-08-04T00:10:23.907Z,3.53
2023-08-04T00:12:26.622Z,2.55
2023-08-04T00:14:30.804Z,2.60
2023-08-04T00:16:34.782Z,4.32
2023-08-04T00:18:37.164Z,4.53
2023-08-04T00:20:39.886Z,2.75
2023-08-04T00:22:42.686Z,3.30
2023-08-04T00:24:44.397Z,3.05
2023-08-04T00:26:47.033Z,2.90
2023-08-04T00:28:49.786Z,4.10
2023-08-04T00:30:53.797Z,2.58
2023-08-04T00:32:56.536Z,3.05
2023-08-04T00:34:58.523Z,4.00
2023-08-04T00:37:01.258Z,2.28
2023-08-04T00:39:04.567Z,2.95
2023-08-04T00:41:07.325Z,3.53
2023-08-04T00:43:10.024Z,5.75
2023-08-04T00:45:12.899Z,3.47
2023-08-04T00:47:16.246Z,3.90
2023-08-04T00:49:19.975Z,3.10
2023-08-04T00:51:22.799Z,2.55
2023-08-04T00:53:25.531Z,3.03
2023-08-04T00:55:28.480Z,3.03
2023-08-04T00:57:31.390Z,5.10
2023-08-04T00:59:34.390Z,2.95
2023-08-04T01:01:36.457Z,2.90
2023-08-04T01:03:42.599Z,2.15
2023-08-04T01:05:51.998Z,2.58
2023-08-04T01:08:01.733Z,2.72
2023-08-04T01:10:12.993Z,2.95
2023-08-04T01:12:20.346Z,4.40
2023-08-04T01:14:24.234Z,5.22
2023-08-04T01:16:27.046Z,3.63
2023-08-04T01:18:29.934Z,3.70
2023-08-04T01:20:33.957Z,2.75
2023-08-04T01:22:38.235Z,2.97
2023-08-04T01:24:40.128Z,3.40
2023-08-04T01:26:46.301Z,4.80
2023-08-04T01:28:51.096Z,5.57
2023-08-04T01:30:58.511Z,2.53
2023-08-04T01:33:01.532Z,2.78
2023-08-04T01:35:06.891Z,2.55
2023-08-04T01:37:09.834Z,3.33
2023-08-04T01:39:14.314Z,2.92
2023-08-04T01:41:17.335Z,3.78
2023-08-04T01:43:22.436Z,2.72
2023-08-04T01:45:24.272Z,2.72
2023-08-04T01:47:27.078Z,4.75
2023-08-04T01:49:29.814Z,2.22
2023-08-04T01:51:32.582Z,5.07
2023-08-04T01:53:35.232Z,3.78
2023-08-04T01:55:39.316Z,3.97
2023-08-04T01:57:42.129Z,3.45
2023-08-04T01:59:43.826Z,3.80
2023-08-04T02:01:46.839Z,3.88
2023-08-04T02:03:49.781Z,4.30
2023-08-04T02:05:52.906Z,3.13
2023-08-04T02:07:55.618Z,3.63
2023-08-04T02:09:58.486Z,3.65
2023-08-04T02:12:02.704Z,3.03
2023-08-04T02:14:05.458Z,5.18
2023-08-04T02:16:08.259Z,5.07
2023-08-04T02:18:11.105Z,2.63
2023-08-04T02:20:14.012Z,3.75
2023-08-04T02:22:16.696Z,3.28
2023-08-04T02:24:19.743Z,3.75
2023-08-04T02:26:22.497Z,2.80
2023-08-04T02:28:26.725Z,3.55
2023-08-04T02:30:29.402Z,4.45
2023-08-04T02:32:32.177Z,2.38
2023-08-04T02:34:34.961Z,3.80
2023-08-04T02:36:37.750Z,2.90
2023-08-04T02:38:39.529Z,2.42
2023-08-04T02:40:42.191Z,2.33
2023-08-04T02:42:44.958Z,3.63
2023-08-04T02:44:53.569Z,2.72
2023-08-04T02:46:56.262Z,2.55
2023-08-04T02:48:58.972Z,2.63
2023-08-04T02:51:06.275Z,2.45
2023-08-04T02:53:08.068Z,4.18
2023-08-04T02:55:11.436Z,4.53
2023-08-04T02:57:14.133Z,2.60
2023-08-04T02:59:16.851Z,2.33
2023-08-04T03:01:21.018Z,2.90
2023-08-04T03:03:23.874Z,3.95
2023-08-04T03:05:26.646Z,2.53
2023-08-04T03:07:29.350Z,2.67
2023-08-04T03:09:32.068Z,2.17
2023-08-04T03:11:34.743Z,3.22
2023-08-04T03:13:37.468Z,3.92
2023-08-04T03:15:40.219Z,3.15
2023-08-04T03:17:44.319Z,3.30
2023-08-04T03:19:47.019Z,2.45
2023-08-04T03:21:49.949Z,4.32
2023-08-04T03:23:53.130Z,3.75
2023-08-04T03:25:55.863Z,4.10
2023-08-04T03:27:58.636Z,2.08
2023-08-04T03:30:01.669Z,4.60
2023-08-04T03:32:05.216Z,3.38
2023-08-04T03:34:09.315Z,3.38
2023-08-04T03:36:12.211Z,4.13
2023-08-04T03:38:14.056Z,3.65
2023-08-04T03:40:18.096Z,3.13
2023-08-04T03:42:20.818Z,2.72
2023-08-04T03:44:23.701Z,4.82
2023-08-04T03:46:26.460Z,4.18
2023-08-04T03:48:29.194Z,2.80
2023-08-04T03:50:32.577Z,2.35
2023-08-04T03:52:35.360Z,3.03
2023-08-04T03:54:38.067Z,3.28
2023-08-04T03:56:40.927Z,2.85
2023-08-04T03:58:43.728Z,3.90
2023-08-04T04:00:46.506Z,3.97
2023-08-04T04:02:50.737Z,3.42
2023-08-04T04:04:53.603Z,1.95
2023-08-04T04:06:57.684Z,3.45
2023-08-04T04:09:00.387Z,3.08
2023-08-04T04:11:04.027Z,1.90
2023-08-04T04:13:07.062Z,2.88
2023-08-04T04:15:09.720Z,2.55
2023-08-04T04:17:12.383Z,2.72
2023-08-04T04:19:15.058Z,2.08
2023-08-04T04:21:17.728Z,3.53
2023-08-04T04:23:21.879Z,2.72
2023-08-04T04:25:23.580Z,3.20
2023-08-04T04:27:26.253Z,2.15
2023-08-04T04:29:28.929Z,3.67
2023-08-04T04:31:31.633Z,2.92
2023-08-04T04:33:34.415Z,5.07
2023-08-04T04:35:37.092Z,2.88
2023-08-04T04:37:39.726Z,4.10
2023-08-04T04:39:43.716Z,3.80
2023-08-04T04:41:47.049Z,6.07
2023-08-04T04:43:50.297Z,2.95
2023-08-04T04:45:53.952Z,3.78
2023-08-04T04:47:56.953Z,2.78
2023-08-04T04:49:58.705Z,3.85
2023-08-04T04:52:01.355Z,3.00
2023-08-04T04:54:03.064Z,4.75
2023-08-04T04:56:07.889Z,2.03
2023-08-04T04:58:10.751Z,4.95
2023-08-04T05:00:14.313Z,2.78
2023-08-04T05:02:17.081Z,1.92
2023-08-04T05:04:19.802Z,4.32
2023-08-04T05:06:24.033Z,4.45
2023-08-04T05:08:29.793Z,4.15
2023-08-04T05:10:32.804Z,3.72
2023-08-04T05:12:36.952Z,3.75
2023-08-04T05:14:41.643Z,4.40
2023-08-04T05:16:46.152Z,4.35
2023-08-04T05:18:48.906Z,3.67
2023-08-04T05:20:51.699Z,5.07
2023-08-04T05:22:54.415Z,3.63
2023-08-04T05:25:09.866Z,4.47
2023-08-04T05:27:14.103Z,4.90
2023-08-04T05:29:18.209Z,3.90
2023-08-04T05:31:20.893Z,3.50
2023-08-04T05:33:23.668Z,4.22
2023-08-04T05:35:28.324Z,3.42
2023-08-04T05:37:31.028Z,4.13
2023-08-04T05:39:34.296Z,5.20
2023-08-04T05:41:36.951Z,4.45
2023-08-04T05:43:39.681Z,4.00
2023-08-04T05:45:45.089Z,3.70
2023-08-04T05:47:51.973Z,3.63
2023-08-04T05:49:54.841Z,3.95
2023-08-04T05:51:57.558Z,3.33
2023-08-04T05:54:00.286Z,5.20
2023-08-04T05:56:02.059Z,5.15
2023-08-04T05:58:05.696Z,3.65
2023-08-04T06:00:09.813Z,2.78
2023-08-04T06:02:13.873Z,2.55
2023-08-04T06:04:16.517Z,6.15
2023-08-04T06:06:20.023Z,2.60
2023-08-04T06:08:22.785Z,3.22
2023-08-04T06:10:25.508Z,2.95
2023-08-04T06:12:29.244Z,2.83
2023-08-04T06:14:33.455Z,2.92
2023-08-04T06:16:36.172Z,2.97
2023-08-04T06:18:40.280Z,2.45
2023-08-04T06:20:42.978Z,3.05
2023-08-04T06:22:48.767Z,3.20
2023-08-04T06:24:51.488Z,4.35
2023-08-04T06:26:54.168Z,6.85
2023-08-04T06:28:56.920Z,2.60
2023-08-04T06:30:59.632Z,3.00
2023-08-04T06:33:02.347Z,3.45
2023-08-04T06:35:07.353Z,2.50
2023-08-04T06:37:10.094Z,2.92
2023-08-04T06:39:12.940Z,7.18
2023-08-04T06:41:15.732Z,5.47
2023-08-04T06:43:18.460Z,4.10
2023-08-04T06:45:21.394Z,5.57
2023-08-04T06:47:24.517Z,2.55
2023-08-04T06:49:27.239Z,3.88
2023-08-04T06:51:31.365Z,3.75
2023-08-04T06:53:34.109Z,3.45
2023-08-04T06:55:36.965Z,3.90
2023-08-04T06:57:40.174Z,3.95
2023-08-04T06:59:42.920Z,2.83
2023-08-04T07:01:46.085Z,3.97
2023-08-04T07:03:49.255Z,2.67
2023-08-04T07:05:51.944Z,2.83
2023-08-04T07:07:56.048Z,3.15
2023-08-04T07:09:58.741Z,3.25
2023-08-04T07:12:01.480Z,5.18
2023-08-04T07:14:03.572Z,3.85
2023-08-04T07:16:06.381Z,3.72
2023-08-04T07:18:09.189Z,3.38
2023-08-04T07:20:12.788Z,3.97
2023-08-04T07:22:15.429Z,2.97
2023-08-04T07:24:19.510Z,3.72
2023-08-04T07:26:21.248Z,3.65
2023-08-04T07:28:23.942Z,2.75
2023-08-04T07:30:26.748Z,4.57
2023-08-04T07:32:28.523Z,6.47
2023-08-04T07:34:31.313Z,4.35
2023-08-04T07:36:34.131Z,4.97
2023-08-04T07:38:36.890Z,4.25
2023-08-04T07:40:41.429Z,1.77
2023-08-04T07:42:44.409Z,3.00
2023-08-04T07:44:47.183Z,3.30
2023-08-04T07:46:49.939Z,3.53
2023-08-04T07:48:52.965Z,4.43
2023-08-04T07:50:56.926Z,2.85
2023-08-04T07:53:01.471Z,2.25
2023-08-04T07:55:04.355Z,5.57
2023-08-04T07:57:08.808Z,2.85
2023-08-04T07:59:11.552Z,4.90
2023-08-04T08:01:14.354Z,2.95
2023-08-04T08:03:17.407Z,3.42
2023-08-04T08:05:20.323Z,2.67
2023-08-04T08:07:32.164Z,4.85
2023-08-04T08:09:42.663Z,3.78
2023-08-04T08:11:45.487Z,3.30
2023-08-04T08:13:49.051Z,3.80
2023-08-04T08:15:51.824Z,3.10
2023-08-04T08:17:54.631Z,2.45
2023-08-04T08:19:57.397Z,3.75
2023-08-04T08:22:01.251Z,4.50
2023-08-04T08:24:03.991Z,2.42
2023-08-04T08:26:06.827Z,3.58
2023-08-04T08:28:09.644Z,3.45
2023-08-04T08:30:14.131Z,3.90
2023-08-04T08:32:16.807Z,3.75
2023-08-04T08:34:19.487Z,3.08
2023-08-04T08:36:22.269Z,3.22
2023-08-04T08:38:25.003Z,2.03
2023-08-04T08:40:28.012Z,3.17
2023-08-04T08:42:29.805Z,4.28
2023-08-04T08:44:32.657Z,3.92
2023-08-04T08:46:36.843Z,3.25
2023-08-04T08:48:40.514Z,3.50
2023-08-04T08:50:45.947Z,2.25
2023-08-04T08:52:58.162Z,2.90
2023-08-04T08:55:01.684Z,4.57
2023-08-04T08:57:04.890Z,1.67
2023-08-04T08:59:09.153Z,2.83
2023-08-04T09:01:11.981Z,4.97
2023-08-04T09:03:16.065Z,3.95
2023-08-04T09:05:18.934Z,2.33
2023-08-04T09:07:23.737Z,2.13
2023-08-04T09:09:26.419Z,3.45
2023-08-04T09:11:30.267Z,3.03
2023-08-04T09:13:33.216Z,3.05
2023-08-04T09:15:36.492Z,4.97
2023-08-04T09:17:42.144Z,3.60
2023-08-04T09:19:45.248Z,3.63
2023-08-04T09:21:48.463Z,4.15
2023-08-04T09:23:52.471Z,4.18
2023-08-04T09:25:55.371Z,3.22
2023-08-04T09:27:58.096Z,4.18
2023-08-04T09:30:01.996Z,6.57
2023-08-04T09:32:14.289Z,4.15
2023-08-04T09:34:17.035Z,4.10
2023-08-04T09:36:21.123Z,4.80
2023-08-04T09:38:24.120Z,4.03
2023-08-04T09:40:26.907Z,3.72
2023-08-04T09:42:29.860Z,6.13
2023-08-04T09:44:36.527Z,4.28
2023-08-04T09:46:41.861Z,4.00
2023-08-04T09:48:44.998Z,5.25
2023-08-04T09:50:47.860Z,4.38
2023-08-04T09:53:03.483Z,5.00
2023-08-04T09:55:10.730Z,4.45
2023-08-04T09:57:14.952Z,5.75
2023-08-04T09:59:20.083Z,4.50
2023-08-04T10:01:22.897Z,4.82
2023-08-04T10:03:26.756Z,3.20
2023-08-04T10:05:30.836Z,4.25
2023-08-04T10:07:33.689Z,3.75
2023-08-04T10:09:38.375Z,4.85
2023-08-04T10:11:41.118Z,3.95
2023-08-04T10:13:47.622Z,3.15
2023-08-04T10:15:51.759Z,5.18
2023-08-04T10:17:54.670Z,3.08
2023-08-04T10:20:06.500Z,3.15
2023-08-04T10:22:11.709Z,3.28
2023-08-04T10:24:18.729Z,3.45
2023-08-04T10:26:23.180Z,3.05
2023-08-04T10:28:25.973Z,4.45
2023-08-04T10:30:39.423Z,4.00
2023-08-04T10:32:51.471Z,3.65
2023-08-04T10:34:55.561Z,4.53
2023-08-04T10:37:02.475Z,3.85
2023-08-04T10:39:31.569Z,4.05
2023-08-04T10:41:36.031Z,3.78
2023-08-04T10:43:40.428Z,5.15
2023-08-04T10:45:56.627Z,6.15
2023-08-04T10:48:08.935Z,3.30
2023-08-04T10:50:14.459Z,3.45
2023-08-04T10:52:16.264Z,4.40
2023-08-04T10:54:19.029Z,3.10
2023-08-04T10:56:23.599Z,2.55
2023-08-04T10:58:29.561Z,4.53
2023-08-04T11:00:32.316Z,3.92
2023-08-04T11:02:36.219Z,4.82
2023-08-04T11:04:38.468Z,4.97
2023-08-04T11:06:41.453Z,4.03
2023-08-04T11:08:45.074Z,3.63
2023-08-04T11:10:49.580Z,4.28
2023-08-04T11:12:54.518Z,4.30
2023-08-04T11:14:59.170Z,5.80
2023-08-04T11:17:03.294Z,3.72
2023-08-04T11:19:08.942Z,4.78
2023-08-04T11:21:11.754Z,4.50
2023-08-04T11:23:14.746Z,4.43
2023-08-04T11:25:17.649Z,12.65
2023-08-04T11:27:21.391Z,4.45
2023-08-04T11:29:24.102Z,3.65
2023-08-04T11:31:28.324Z,3.47
2023-08-04T11:33:30.630Z,4.32
2023-08-04T11:35:34.133Z,5.55
2023-08-04T11:37:36.203Z,4.45
2023-08-04T11:39:41.486Z,6.07
2023-08-04T11:41:45.062Z,3.63
2023-08-04T11:43:47.832Z,3.67
2023-08-04T11:45:49.873Z,3.72
2023-08-04T11:47:57.113Z,2.95
2023-08-04T11:50:00.151Z,3.78
2023-08-04T11:52:05.262Z,5.63
2023-08-04T11:54:07.023Z,3.60
2023-08-04T11:56:24.681Z,3.30
2023-08-04T11:58:35.083Z,3.47
2023-08-04T12:00:38.848Z,3.47
2023-08-04T12:02:57.795Z,4.10
2023-08-04T12:05:08.840Z,4.28
2023-08-04T12:07:12.459Z,5.38
2023-08-04T12:09:15.372Z,4.63
2023-08-04T12:11:18.438Z,4.18
2023-08-04T12:13:36.372Z,3.97
2023-08-04T12:15:53.003Z,3.00
2023-08-04T12:17:57.392Z,4.07
2023-08-04T12:20:00.306Z,4.55
2023-08-04T12:22:05.167Z,6.18
2023-08-04T12:24:08.223Z,3.30
2023-08-04T12:26:10.911Z,5.95
2023-08-04T12:28:12.833Z,4.38
2023-08-04T12:30:15.505Z,5.20
2023-08-04T12:32:17.417Z,5.22
2023-08-04T12:34:23.131Z,4.28
2023-08-04T12:36:26.652Z,5.95
2023-08-04T12:38:29.374Z,5.30
2023-08-04T12:40:32.761Z,8.05
2023-08-04T12:42:36.237Z,3.92
2023-08-04T12:44:39.044Z,3.35
2023-08-04T12:46:41.809Z,1.95
2023-08-04T12:48:44.638Z,3.60
2023-08-04T12:50:48.809Z,5.45
2023-08-04T12:52:51.535Z,3.65
2023-08-04T12:54:54.338Z,3.22
2023-08-04T12:56:57.190Z,3.00
2023-08-04T12:58:59.020Z,4.20
2023-08-04T13:01:01.820Z,5.10
2023-08-04T13:03:04.630Z,3.85
2023-08-04T13:05:09.177Z,4.05
2023-08-04T13:07:13.348Z,2.72
2023-08-04T13:09:16.741Z,3.95
2023-08-04T13:11:19.500Z,4.15
2023-08-04T13:13:22.250Z,3.10
2023-08-04T13:15:25.034Z,2.85
2023-08-04T13:17:26.906Z,3.10
2023-08-04T13:19:29.597Z,2.30
2023-08-04T13:21:32.304Z,2.85
2023-08-04T13:23:36.388Z,3.35
2023-08-04T13:25:39.873Z,2.80
2023-08-04T13:27:42.632Z,3.13
2023-08-04T13:29:48.167Z,2.55
2023-08-04T13:31:51.088Z,2.22
2023-08-04T13:33:54.010Z,2.40
2023-08-04T13:35:57.431Z,2.28
2023-08-04T13:38:00.156Z,3.30
2023-08-04T13:40:04.558Z,3.28
2023-08-04T13:42:07.598Z,2.30
2023-08-04T13:44:09.363Z,1.60
2023-08-04T13:46:12.293Z,3.53
2023-08-04T13:48:15.246Z,1.50
2023-08-04T13:50:18.215Z,3.30
2023-08-04T13:52:20.968Z,4.68
2023-08-04T13:54:23.683Z,2.83
2023-08-04T13:56:27.788Z,2.72
2023-08-04T13:58:30.889Z,3.03
2023-08-04T14:00:33.599Z,2.72
2023-08-04T14:02:36.652Z,2.80
2023-08-04T14:04:39.596Z,2.53
2023-08-04T14:06:42.330Z,3.10
2023-08-04T14:08:45.321Z,3.47
2023-08-04T14:10:48.533Z,3.60
2023-08-04T14:12:52.600Z,3.47
2023-08-04T14:14:55.780Z,4.47
2023-08-04T14:16:58.562Z,3.65
2023-08-04T14:19:01.211Z,3.72
2023-08-04T14:21:04.312Z,3.70
2023-08-04T14:23:09.128Z,3.78
2023-08-04T14:25:11.959Z,4.97
2023-08-04T14:27:21.595Z,4.15
2023-08-04T14:29:34.472Z,5.18
2023-08-04T14:31:37.225Z,5.35
2023-08-04T14:33:39.980Z,4.35
2023-08-04T14:35:42.904Z,3.92
2023-08-04T14:37:45.683Z,4.00
2023-08-04T14:39:50.739Z,4.28
2023-08-04T14:41:54.715Z,12.95
2023-08-04T14:43:57.511Z,7.38
2023-08-04T14:46:01.648Z,15.23
2023-08-04T14:48:04.830Z,10.85
2023-08-04T14:50:09.226Z,5.35
2023-08-04T14:52:11.903Z,5.15
2023-08-04T14:54:15.169Z,5.68
2023-08-04T14:56:18.044Z,4.32
2023-08-04T14:58:20.880Z,3.70
2023-08-04T15:00:23.857Z,4.80
2023-08-04T15:02:28.033Z,4.68
2023-08-04T15:04:30.824Z,4.00
2023-08-04T15:06:33.599Z,4.03
2023-08-04T15:08:36.383Z,3.63
2023-08-04T15:10:39.174Z,3.70
2023-08-04T15:12:41.882Z,5.72
2023-08-04T15:14:45.058Z,3.75
2023-08-04T15:16:48.172Z,3.65
2023-08-04T15:18:52.558Z,3.80
2023-08-04T15:20:55.289Z,4.97
2023-08-04T15:22:58.084Z,4.32
2023-08-04T15:24:59.894Z,5.70
2023-08-04T15:27:02.614Z,3.40
2023-08-04T15:29:05.439Z,3.80
2023-08-04T15:31:09.545Z,4.00
2023-08-04T15:33:12.361Z,4.82
2023-08-04T15:35:16.786Z,4.10
2023-08-04T15:37:18.609Z,4.65
2023-08-04T15:39:21.679Z,4.75
2023-08-04T15:41:24.412Z,4.18
2023-08-04T15:43:27.143Z,4.00
2023-08-04T15:45:29.807Z,4.85
2023-08-04T15:47:32.652Z,4.35
2023-08-04T15:49:35.392Z,5.07
2023-08-04T15:51:38.463Z,5.03
2023-08-04T15:53:41.505Z,6.32
2023-08-04T15:55:44.765Z,4.80
2023-08-04T15:57:47.551Z,4.80
2023-08-04T15:59:51.063Z,5.65
2023-08-04T16:01:53.783Z,5.03
2023-08-04T16:03:56.542Z,7.15
2023-08-04T16:06:00.942Z,5.03
2023-08-04T16:08:05.357Z,5.75
2023-08-04T16:10:08.351Z,5.82
2023-08-04T16:12:11.172Z,4.72
2023-08-04T16:14:13.816Z,5.18
2023-08-04T16:16:16.606Z,5.40
2023-08-04T16:18:19.354Z,5.05
2023-08-04T16:20:22.384Z,5.70
2023-08-04T16:22:24.061Z,5.13
2023-08-04T16:24:28.307Z,4.95
2023-08-04T16:26:32.327Z,7.53
2023-08-04T16:28:34.060Z,4.97
2023-08-04T16:30:36.704Z,5.22
2023-08-04T16:32:39.521Z,5.72
2023-08-04T16:34:42.172Z,5.60
2023-08-04T16:36:44.920Z,7.28
2023-08-04T16:38:47.660Z,5.40
2023-08-04T16:40:55.492Z,4.65
2023-08-04T16:42:58.247Z,5.43
2023-08-04T16:45:00.930Z,6.43
2023-08-04T16:47:03.831Z,3.67
2023-08-04T16:49:06.511Z,3.97
2023-08-04T16:51:09.241Z,3.45
2023-08-04T16:53:11.943Z,3.55
2023-08-04T16:55:14.638Z,4.47
2023-08-04T16:57:18.651Z,3.97
2023-08-04T16:59:21.593Z,2.92
2023-08-04T17:01:24.432Z,3.28
2023-08-04T17:03:26.915Z,3.33
2023-08-04T17:05:32.365Z,2.90
2023-08-04T17:07:35.025Z,3.35
2023-08-04T17:09:37.740Z,3.28
2023-08-04T17:11:40.406Z,3.22
2023-08-04T17:13:45.296Z,2.95
2023-08-04T17:15:48.038Z,3.22
2023-08-04T17:17:51.500Z,3.85
2023-08-04T17:19:53.279Z,3.08
2023-08-04T17:21:56.351Z,3.38
2023-08-04T17:23:59.074Z,3.17
2023-08-04T17:26:02.021Z,3.40
2023-08-04T17:28:05.099Z,3.42
2023-08-04T17:30:10.397Z,3.80
2023-08-04T17:32:15.493Z,3.53
2023-08-04T17:34:18.647Z,5.80
2023-08-04T17:36:21.670Z,6.28
2023-08-04T17:38:24.553Z,4.82
2023-08-04T17:40:28.005Z,5.07
2023-08-04T17:42:30.792Z,5.68
2023-08-04T17:44:33.507Z,7.70
2023-08-04T17:46:37.570Z,5.47
2023-08-04T17:48:40.345Z,6.05
2023-08-04T17:50:50.691Z,9.43
2023-08-04T17:52:53.699Z,7.80
2023-08-04T17:54:56.418Z,5.10
2023-08-04T17:57:01.029Z,6.15
2023-08-04T17:59:03.768Z,5.22
2023-08-04T18:01:07.998Z,5.65
2023-08-04T18:03:12.365Z,5.90
2023-08-04T18:05:15.202Z,5.03
2023-08-04T18:07:18.040Z,9.13
2023-08-04T18:09:20.835Z,5.40
2023-08-04T18:11:22.582Z,5.28
2023-08-04T18:13:25.251Z,6.13
2023-08-04T18:15:28.010Z,6.18
2023-08-04T18:17:30.742Z,5.75
2023-08-04T18:19:34.886Z,4.85
2023-08-04T18:21:39.561Z,4.40
2023-08-04T18:23:42.385Z,4.80
2023-08-04T18:25:45.139Z,5.15
2023-08-04T18:27:47.927Z,4.75
2023-08-04T18:29:50.834Z,5.45
2023-08-04T18:31:53.512Z,4.65
2023-08-04T18:33:56.241Z,5.28
2023-08-04T18:36:00.363Z,5.95
2023-08-04T18:38:03.157Z,5.85
2023-08-04T18:40:07.597Z,5.20
2023-08-04T18:42:10.254Z,4.88
2023-08-04T18:44:14.619Z,5.65
2023-08-04T18:46:18.897Z,5.70
2023-08-04T18:48:21.694Z,4.30
2023-08-04T18:50:24.827Z,4.68
2023-08-04T18:52:28.910Z,4.75
2023-08-04T18:54:31.657Z,6.00
2023-08-04T18:56:34.372Z,4.95
2023-08-04T18:58:37.120Z,4.97
2023-08-04T19:00:38.919Z,5.03
2023-08-04T19:02:41.762Z,5.80
2023-08-04T19:04:44.535Z,5.85
2023-08-04T19:06:47.891Z,5.47
2023-08-04T19:08:52.215Z,5.55
2023-08-04T19:10:55.001Z,6.60
2023-08-04T19:12:57.745Z,5.45
2023-08-04T19:15:00.607Z,6.28
2023-08-04T19:17:05.234Z,6.25
2023-08-04T19:19:08.022Z,6.70
2023-08-04T19:21:10.762Z,6.93
2023-08-04T19:23:13.438Z,6.90
2023-08-04T19:25:17.768Z,6.70
2023-08-04T19:27:20.224Z,5.78
2023-08-04T19:29:23.120Z,7.47
2023-08-04T19:31:25.879Z,8.38
2023-08-04T19:33:28.636Z,7.05
2023-08-04T19:35:31.362Z,7.30
2023-08-04T19:37:34.075Z,7.72
2023-08-04T19:39:37.071Z,6.35
2023-08-04T19:41:42.064Z,6.95
2023-08-04T19:43:44.809Z,6.60
2023-08-04T19:45:47.652Z,7.47
2023-08-04T19:47:50.404Z,7.68
2023-08-04T19:49:54.199Z,5.28
2023-08-04T19:51:56.970Z,7.70
2023-08-04T19:53:59.780Z,9.15
2023-08-04T19:56:09.306Z,9.48
2023-08-04T19:58:14.107Z,8.50
2023-08-04T20:00:17.133Z,7.65
2023-08-04T20:02:20.009Z,8.85
2023-08-04T20:04:22.802Z,10.82
2023-08-04T20:06:25.567Z,8.38
2023-08-04T20:08:27.465Z,9.65
2023-08-04T20:10:30.650Z,7.15
2023-08-04T20:12:33.419Z,8.88
2023-08-04T20:14:37.470Z,9.55
2023-08-04T20:16:40.198Z,8.60
2023-08-04T20:18:43.495Z,7.70
2023-08-04T20:20:53.032Z,7.70
2023-08-04T20:22:55.842Z,10.90
2023-08-04T20:24:58.571Z,11.68
2023-08-04T20:27:01.343Z,11.38
2023-08-04T20:29:04.121Z,8.32
2023-08-04T20:31:11.107Z,10.93
2023-08-04T20:33:14.592Z,9.48
2023-08-04T20:35:17.505Z,9.02
2023-08-04T20:37:20.183Z,10.02
2023-08-04T20:39:22.963Z,11.77
2023-08-04T20:41:25.736Z,7.68
2023-08-04T20:43:27.499Z,10.02
2023-08-04T20:45:30.310Z,8.75
2023-08-04T20:47:34.759Z,9.80
2023-08-04T20:49:37.464Z,9.27
2023-08-04T20:51:40.139Z,9.27
2023-08-04T20:53:43.236Z,9.45
2023-08-04T20:55:50.937Z,9.32
2023-08-04T20:57:53.675Z,8.02
2023-08-04T20:59:56.524Z,11.00
2023-08-04T21:01:59.274Z,9.95
2023-08-04T21:04:03.341Z,9.80
2023-08-04T21:06:06.027Z,8.38
2023-08-04T21:08:08.845Z,8.48
2023-08-04T21:10:11.643Z,11.85
2023-08-04T21:12:14.462Z,9.48
2023-08-04T21:14:17.167Z,11.43
2023-08-04T21:16:19.974Z,7.70
2023-08-04T21:18:21.754Z,8.23
2023-08-04T21:20:25.786Z,9.60
2023-08-04T21:22:28.524Z,10.23
2023-08-04T21:24:31.247Z,9.70
2023-08-04T21:26:34.095Z,11.88
2023-08-04T21:28:38.832Z,10.75
2023-08-04T21:30:41.657Z,9.55
2023-08-04T21:32:43.444Z,9.52
2023-08-04T21:34:46.156Z,7.40
2023-08-04T21:36:50.487Z,8.23
2023-08-04T21:38:53.422Z,8.35
2023-08-04T21:40:57.861Z,8.90
2023-08-04T21:43:00.568Z,9.85
2023-08-04T21:45:03.822Z,9.98
2023-08-04T21:47:05.962Z,8.13
2023-08-04T21:49:08.750Z,7.95
2023-08-04T21:51:12.291Z,8.93
2023-08-04T21:53:15.431Z,8.68
2023-08-04T21:55:19.365Z,8.35
2023-08-04T21:57:22.364Z,8.93
2023-08-04T21:59:25.079Z,10.45
2023-08-04T22:01:27.838Z,9.15
2023-08-04T22:03:29.796Z,8.77
2023-08-04T22:05:34.777Z,7.75
2023-08-04T22:07:37.548Z,8.95
2023-08-04T22:09:41.644Z,10.95
2023-08-04T22:11:44.417Z,9.68
2023-08-04T22:13:47.196Z,7.75
2023-08-04T22:15:52.111Z,8.63
2023-08-04T22:17:55.046Z,8.18
2023-08-04T22:19:57.819Z,7.90
2023-08-04T22:22:00.613Z,7.97
2023-08-04T22:24:03.395Z,8.73
2023-08-04T22:26:08.871Z,7.47
2023-08-04T22:28:11.437Z,10.77
2023-08-04T22:30:14.239Z,9.15
2023-08-04T22:32:16.957Z,8.60
2023-08-04T22:34:19.703Z,10.40
2023-08-04T22:36:22.897Z,10.90
2023-08-04T22:38:25.617Z,8.07
2023-08-04T22:40:28.355Z,8.90
2023-08-04T22:42:32.400Z,6.82
2023-08-04T22:44:35.309Z,8.55
2023-08-04T22:46:38.061Z,7.82
2023-08-04T22:48:41.200Z,8.77
2023-08-04T22:50:43.964Z,9.48
2023-08-04T22:52:46.757Z,9.48
2023-08-04T22:54:49.598Z,6.90
2023-08-04T22:56:52.219Z,8.60
2023-08-04T22:58:56.474Z,8.82
2023-08-04T23:00:58.492Z,8.13
2023-08-04T23:03:01.198Z,8.85
2023-08-04T23:05:03.177Z,10.05
2023-08-04T23:07:06.017Z,7.63
2023-08-04T23:09:08.717Z,8.10
2023-08-04T23:11:10.538Z,8.88
2023-08-04T23:13:13.496Z,8.07
2023-08-04T23:15:17.575Z,8.52
2023-08-04T23:17:20.255Z,6.97
2023-08-04T23:19:22.947Z,7.10
2023-08-04T23:21:25.660Z,9.13
2023-08-04T23:23:28.568Z,11.50
2023-08-04T23:25:31.319Z,11.30
2023-08-04T23:27:34.017Z,6.55
2023-08-04T23:29:35.826Z,7.78
2023-08-04T23:31:40.162Z,10.57
2023-08-04T23:33:42.921Z,8.95
2023-08-04T23:35:53.579Z,6.82
2023-08-04T23:37:56.334Z,8.63
2023-08-04T23:39:59.654Z,10.15
2023-08-04T23:42:02.393Z,8.80
2023-08-04T23:44:04.504Z,9.45
2023-08-04T23:46:07.286Z,8.38
2023-08-04T23:48:11.408Z,7.38
2023-08-04T23:50:14.204Z,8.18
2023-08-04T23:52:16.845Z,9.40
2023-08-04T23:54:19.497Z,7.78
2023-08-04T23:56:22.212Z,8.40
2023-08-04T23:58:24.986Z,7.57
